createdAt,value
2018-07-26T00:01:04.825Z,6.40
2018-07-26T00:15:11.236Z,7.10
2018-07-26T00:17:57.174Z,7.20
2018-07-26T00:20:31.889Z,6.63
2018-07-26T00:23:05.191Z,7.00
2018-07-26T00:25:38.690Z,7.00
2018-07-26T00:28:11.664Z,6.60
2018-07-26T00:30:49.583Z,6.73
2018-07-26T00:36:15.411Z,6.83
2018-07-26T00:38:49.021Z,6.53
2018-07-26T00:41:23.592Z,7.13
2018-07-26T00:43:58.247Z,7.10
2018-07-26T00:46:31.668Z,7.33
2018-07-26T00:51:57.305Z,7.10
2018-07-26T00:54:41.156Z,7.30
2018-07-26T00:57:15.976Z,7.33
2018-07-26T00:59:50.090Z,7.57
2018-07-26T01:02:25.189Z,6.80
2018-07-26T01:04:59.961Z,6.97
2018-07-26T01:07:35.784Z,7.23
2018-07-26T01:10:10.331Z,6.67
2018-07-26T01:18:31.834Z,7.43
2018-07-26T01:21:07.130Z,7.83
2018-07-26T01:23:44.322Z,7.27
2018-07-26T01:26:18.840Z,7.70
2018-07-26T01:28:54.285Z,7.00
2018-07-26T01:31:28.812Z,7.37
2018-07-26T01:34:07.431Z,6.80
2018-07-26T01:36:43.901Z,7.03
2018-07-26T01:39:27.738Z,7.13
2018-07-26T01:42:04.104Z,7.00
2018-07-26T01:44:37.808Z,7.13
2018-07-26T01:47:11.409Z,7.33
2018-07-26T01:49:46.075Z,7.07
2018-07-26T01:52:21.274Z,6.80
2018-07-26T01:55:10.730Z,7.37
2018-07-26T01:57:44.042Z,7.13
2018-07-26T02:00:17.336Z,6.87
2018-07-26T02:02:51.533Z,6.80
2018-07-26T02:05:25.871Z,6.80
2018-07-26T02:07:59.172Z,6.97
2018-07-26T02:10:46.598Z,6.87
2018-07-26T02:16:16.937Z,7.00
2018-07-26T02:18:50.200Z,6.87
2018-07-26T02:21:23.632Z,6.53
2018-07-26T02:23:56.692Z,7.20
2018-07-26T02:44:09.148Z,6.53
2018-07-26T02:46:43.360Z,6.80
2018-07-26T02:49:28.638Z,7.10
2018-07-26T02:52:02.238Z,7.00
2018-07-26T02:54:54.991Z,6.57
2018-07-26T02:57:29.511Z,6.90
2018-07-26T03:00:11.612Z,6.47
2018-07-26T03:14:25.560Z,6.40
2018-07-26T03:16:58.315Z,6.20
2018-07-26T03:19:38.065Z,6.53
2018-07-26T03:25:04.996Z,5.97
2018-07-26T03:27:38.937Z,5.90
2018-07-26T03:30:13.533Z,6.07
2018-07-26T03:35:40.323Z,5.83
2018-07-26T03:38:28.777Z,5.57
2018-07-26T03:41:01.759Z,5.77
2018-07-26T03:43:36.900Z,5.93
2018-07-26T03:57:59.749Z,6.07
2018-07-26T04:00:33.946Z,6.10
2018-07-26T04:06:09.721Z,6.00
2018-07-26T04:08:42.703Z,5.87
2018-07-26T04:11:16.918Z,6.03
2018-07-26T04:13:51.986Z,6.27
2018-07-26T04:16:25.326Z,6.03
2018-07-26T04:19:01.593Z,5.60
2018-07-26T04:24:29.605Z,6.10
2018-07-26T04:27:03.492Z,6.40
2018-07-26T04:32:29.666Z,6.10
2018-07-26T04:35:08.231Z,5.57
2018-07-26T04:37:43.829Z,6.07
2018-07-26T04:40:18.044Z,5.83
2018-07-26T04:42:51.355Z,6.23
2018-07-26T04:48:30.494Z,6.00
2018-07-26T04:53:51.518Z,5.60
2018-07-26T04:56:24.812Z,6.13
2018-07-26T05:10:31.964Z,6.00
2018-07-26T05:13:05.371Z,5.80
2018-07-26T05:15:41.951Z,5.70
2018-07-26T05:18:16.878Z,5.60
2018-07-26T05:26:36.666Z,5.90
2018-07-26T05:29:10.091Z,5.00
2018-07-26T05:31:44.139Z,5.80
2018-07-26T05:34:17.806Z,5.47
2018-07-26T05:36:52.027Z,6.17
2018-07-26T05:39:25.935Z,5.47
2018-07-26T05:53:50.590Z,5.23
2018-07-26T05:56:24.923Z,5.57
2018-07-26T05:58:59.752Z,5.50
2018-07-26T06:04:28.562Z,5.30
2018-07-26T06:07:01.038Z,5.70
2018-07-26T06:09:35.293Z,4.90
2018-07-26T06:12:09.776Z,4.80
2018-07-26T06:14:42.762Z,4.63
2018-07-26T06:17:17.325Z,5.20
2018-07-26T06:19:51.303Z,5.33
2018-07-26T06:22:31.965Z,5.00
2018-07-26T06:25:05.822Z,4.63
2018-07-26T06:27:41.109Z,5.10
2018-07-26T06:30:16.659Z,4.73
2018-07-26T06:32:50.776Z,4.67
2018-07-26T06:35:25.197Z,4.80
2018-07-26T06:37:59.411Z,4.80
2018-07-26T06:40:34.548Z,4.90
2018-07-26T06:43:09.993Z,4.73
2018-07-26T06:45:43.981Z,5.30
2018-07-26T06:48:20.473Z,5.30
2018-07-26T06:50:53.533Z,5.03
2018-07-26T06:53:26.836Z,4.87
2018-07-26T06:56:01.277Z,5.00
2018-07-26T06:58:35.595Z,4.83
2018-07-26T07:01:10.666Z,5.03
2018-07-26T07:03:45.037Z,5.40
2018-07-26T07:06:19.887Z,5.37
2018-07-26T07:08:53.797Z,5.50
2018-07-26T07:11:26.867Z,4.87
2018-07-26T07:14:00.282Z,5.17
2018-07-26T07:19:23.969Z,5.30
2018-07-26T07:22:06.070Z,5.35
2018-07-26T07:27:36.822Z,4.67
2018-07-26T07:30:14.111Z,4.65
2018-07-26T07:32:48.194Z,4.87
2018-07-26T07:35:23.569Z,5.33
2018-07-26T07:37:56.962Z,5.08
2018-07-26T07:40:30.922Z,4.90
2018-07-26T07:43:04.575Z,5.12
2018-07-26T07:45:39.430Z,5.92
2018-07-26T07:48:13.007Z,5.97
2018-07-26T07:50:54.089Z,5.40
2018-07-26T07:53:31.067Z,5.20
2018-07-26T07:56:13.677Z,5.60
2018-07-26T07:58:54.655Z,5.70
2018-07-26T08:01:27.125Z,5.53
2018-07-26T08:04:01.287Z,5.33
2018-07-26T08:06:33.617Z,5.40
2018-07-26T08:11:50.338Z,5.80
2018-07-26T08:14:25.271Z,5.58
2018-07-26T08:16:58.876Z,5.10
2018-07-26T08:22:26.657Z,5.80
2018-07-26T08:36:33.824Z,6.10
2018-07-26T08:39:12.952Z,6.28
2018-07-26T08:44:28.654Z,5.25
2018-07-26T08:49:49.883Z,5.33
2018-07-26T09:01:03.305Z,5.67
2018-07-26T09:03:37.593Z,6.00
2018-07-26T09:06:12.514Z,5.42
2018-07-26T09:08:46.025Z,6.05
2018-07-26T09:14:26.553Z,5.40
2018-07-26T09:17:00.696Z,5.95
2018-07-26T09:19:37.313Z,6.10
2018-07-26T09:22:13.566Z,5.85
2018-07-26T09:24:48.696Z,5.47
2018-07-26T09:27:21.861Z,5.83
2018-07-26T09:29:55.387Z,5.78
2018-07-26T09:32:33.338Z,5.80
2018-07-26T09:38:09.267Z,6.03
2018-07-26T09:40:44.281Z,5.85
2018-07-26T09:43:17.290Z,5.87
2018-07-26T09:45:53.707Z,5.90
2018-07-26T10:00:13.196Z,6.08
2018-07-26T10:02:54.194Z,6.45
2018-07-26T10:05:27.762Z,6.12
2018-07-26T10:08:01.490Z,6.55
2018-07-26T10:10:37.549Z,6.80
2018-07-26T10:13:12.686Z,6.70
2018-07-26T10:15:45.983Z,6.37
2018-07-26T10:18:25.726Z,6.22
2018-07-26T10:21:08.544Z,6.42
2018-07-26T10:23:46.654Z,5.80
2018-07-26T10:29:14.324Z,6.70
2018-07-26T10:31:49.165Z,6.78
2018-07-26T10:34:33.313Z,6.62
2018-07-26T10:37:10.161Z,6.20
2018-07-26T10:39:44.510Z,6.37
2018-07-26T10:42:19.655Z,6.62
2018-07-26T10:44:54.924Z,6.75
2018-07-26T10:47:29.512Z,6.33
2018-07-26T10:50:06.599Z,6.53
2018-07-26T10:52:48.599Z,6.10
2018-07-26T10:55:34.491Z,5.92
2018-07-26T10:58:10.955Z,6.97
2018-07-26T11:00:48.845Z,6.50
2018-07-26T11:03:25.527Z,6.20
2018-07-26T11:06:04.053Z,6.08
2018-07-26T11:08:44.609Z,6.03
2018-07-26T11:11:19.542Z,5.78
2018-07-26T11:13:55.608Z,5.83
2018-07-26T11:19:20.213Z,5.72
2018-07-26T11:21:58.211Z,5.53
2018-07-26T11:24:35.509Z,5.40
2018-07-26T11:27:11.873Z,5.40
2018-07-26T11:29:47.332Z,5.40
2018-07-26T11:32:22.528Z,5.67
2018-07-26T11:34:58.601Z,5.30
2018-07-26T11:40:33.129Z,5.22
2018-07-26T11:43:15.441Z,5.35
2018-07-26T11:46:00.804Z,4.80
2018-07-26T11:48:37.826Z,4.55
2018-07-26T11:51:13.477Z,4.80
2018-07-26T11:53:49.739Z,4.40
2018-07-26T11:56:25.596Z,4.40
2018-07-26T11:59:04.872Z,4.50
2018-07-26T12:01:38.639Z,4.05
2018-07-26T12:04:26.567Z,4.53
2018-07-26T12:07:02.832Z,4.30
2018-07-26T12:09:49.460Z,3.98
2018-07-26T12:12:26.111Z,4.25
2018-07-26T12:15:08.929Z,4.30
2018-07-26T12:17:53.426Z,3.92
2018-07-26T12:20:30.169Z,4.20
2018-07-26T12:23:04.489Z,4.00
2018-07-26T12:25:44.842Z,3.77
2018-07-26T12:28:22.453Z,3.40
2018-07-26T12:31:00.702Z,3.83
2018-07-26T12:33:35.957Z,3.90
2018-07-26T12:36:13.379Z,4.00
2018-07-26T12:38:51.588Z,3.60
2018-07-26T12:41:31.392Z,4.15
2018-07-26T12:44:13.230Z,3.60
2018-07-26T12:46:49.491Z,3.65
2018-07-26T12:49:24.935Z,3.77
2018-07-26T12:51:59.461Z,3.50
2018-07-26T12:54:34.087Z,3.08
2018-07-26T13:00:00.538Z,3.62
2018-07-26T13:02:38.243Z,2.85
2018-07-26T13:05:29.182Z,2.95
2018-07-26T13:08:08.171Z,3.05
2018-07-26T13:10:41.980Z,2.87
2018-07-26T13:13:21.112Z,3.20
2018-07-26T13:15:55.427Z,3.70
2018-07-26T13:18:37.937Z,3.22
2018-07-26T13:21:14.819Z,3.20
2018-07-26T13:23:53.230Z,3.10
2018-07-26T13:26:28.315Z,3.17
2018-07-26T13:29:10.374Z,3.10
2018-07-26T13:31:46.221Z,3.27
2018-07-26T13:34:22.324Z,3.15
2018-07-26T13:36:57.526Z,2.85
2018-07-26T13:39:33.169Z,2.90
2018-07-26T13:42:09.535Z,2.70
2018-07-26T13:44:46.521Z,3.42
2018-07-26T13:47:29.399Z,3.10
2018-07-26T13:50:09.185Z,2.98
2018-07-26T13:52:43.787Z,3.20
2018-07-26T13:55:21.507Z,2.98
2018-07-26T13:57:58.181Z,2.98
2018-07-26T14:00:39.975Z,3.12
2018-07-26T14:03:18.976Z,2.65
2018-07-26T14:06:01.919Z,3.20
2018-07-26T14:11:30.429Z,3.10
2018-07-26T14:31:24.524Z,3.00
2018-07-26T14:34:06.883Z,3.33
2018-07-26T14:36:41.429Z,3.00
2018-07-26T14:39:18.948Z,3.15
2018-07-26T14:42:00.931Z,3.00
2018-07-26T14:44:41.194Z,3.08
2018-07-26T14:47:15.723Z,3.10
2018-07-26T14:49:52.089Z,3.00
2018-07-26T14:52:26.308Z,3.15
2018-07-26T14:55:05.134Z,3.12
2018-07-26T14:57:41.196Z,3.20
2018-07-26T15:00:16.018Z,3.02
2018-07-26T15:02:51.462Z,2.95
2018-07-26T15:22:44.134Z,2.90
2018-07-26T15:25:21.926Z,3.15
2018-07-26T15:27:55.604Z,2.77
2018-07-26T15:30:41.837Z,2.98
2018-07-26T15:33:16.252Z,3.00
2018-07-26T15:35:50.467Z,3.00
2018-07-26T15:38:35.652Z,2.90
2018-07-26T15:41:13.027Z,3.02
2018-07-26T15:43:49.602Z,2.95
2018-07-26T15:46:26.277Z,2.90
2018-07-26T15:49:01.723Z,3.45
2018-07-26T15:51:36.982Z,3.35
2018-07-26T15:54:11.788Z,3.35
2018-07-26T15:56:47.491Z,3.20
2018-07-26T15:59:21.143Z,3.02
2018-07-26T16:01:58.094Z,3.75
2018-07-26T16:04:34.691Z,3.17
2018-07-26T16:12:42.206Z,3.00
2018-07-26T16:15:20.476Z,3.10
2018-07-26T16:18:00.418Z,3.20
2018-07-26T16:20:35.031Z,3.17
2018-07-26T16:23:10.145Z,3.25
2018-07-26T16:25:42.592Z,2.95
2018-07-26T16:28:16.324Z,3.55
2018-07-26T16:39:34.321Z,2.92
2018-07-26T16:42:09.873Z,3.12
2018-07-26T16:44:55.758Z,3.33
2018-07-26T16:47:28.821Z,3.33
2018-07-26T16:50:02.965Z,3.17
2018-07-26T16:52:36.459Z,3.20
2018-07-26T16:55:14.362Z,3.20
2018-07-26T16:57:50.423Z,3.20
2018-07-26T17:00:25.255Z,3.50
2018-07-26T17:03:00.460Z,3.87
2018-07-26T17:05:41.980Z,3.35
2018-07-26T17:08:18.083Z,3.20
2018-07-26T17:10:58.387Z,2.90
2018-07-26T17:13:32.337Z,3.20
2018-07-26T17:16:07.649Z,3.33
2018-07-26T17:18:41.347Z,3.37
2018-07-26T17:21:18.028Z,3.75
2018-07-26T17:26:49.258Z,3.70
2018-07-26T17:29:17.337Z,3.70
2018-07-26T17:31:45.104Z,3.23
2018-07-26T17:34:19.136Z,3.80
2018-07-26T17:37:15.324Z,4.00
2018-07-26T17:39:49.982Z,3.90
2018-07-26T17:42:25.324Z,3.77
2018-07-26T17:45:01.516Z,3.70
2018-07-26T17:47:38.982Z,3.90
2018-07-26T17:53:10.147Z,3.10
2018-07-26T17:55:45.969Z,3.70
2018-07-26T17:58:15.081Z,3.47
2018-07-26T18:03:46.068Z,3.57
2018-07-26T18:06:13.860Z,3.80
2018-07-26T18:08:41.658Z,3.50
2018-07-26T18:11:09.448Z,3.60
2018-07-26T18:14:40.357Z,3.57
2018-07-26T18:17:08.169Z,3.80
2018-07-26T18:19:36.204Z,3.90
2018-07-26T18:22:04.042Z,4.50
2018-07-26T18:24:31.843Z,5.30
2018-07-26T18:26:59.677Z,4.33
2018-07-26T18:29:33.285Z,3.97
2018-07-26T18:32:01.148Z,4.03
2018-07-26T18:34:28.949Z,3.83
2018-07-26T18:36:56.773Z,4.03
2018-07-26T18:39:24.620Z,4.10
2018-07-26T18:41:52.659Z,3.97
2018-07-26T18:44:20.761Z,3.97
2018-07-26T18:46:48.668Z,4.10
2018-07-26T18:49:16.581Z,4.07
2018-07-26T18:51:44.751Z,4.37
2018-07-26T18:54:12.585Z,4.10
2018-07-26T18:56:40.465Z,3.90
2018-07-26T18:59:08.676Z,4.23
2018-07-26T19:01:36.572Z,4.27
2018-07-26T19:04:04.541Z,4.67
2018-07-26T19:06:32.509Z,4.80
2018-07-26T19:09:00.313Z,4.53
2018-07-26T19:11:28.144Z,4.37
2018-07-26T19:13:55.989Z,4.50
2018-07-26T19:16:23.844Z,4.30
2018-07-26T19:18:51.662Z,4.37
2018-07-26T19:21:19.725Z,4.77
2018-07-26T19:23:47.715Z,4.50
2018-07-26T19:26:15.477Z,4.33
2018-07-26T19:28:43.379Z,4.27
2018-07-26T19:31:11.184Z,4.43
2018-07-26T19:33:38.961Z,4.27
2018-07-26T19:36:06.881Z,4.50
2018-07-26T19:38:34.704Z,4.57
2018-07-26T19:41:03.011Z,4.60
2018-07-26T19:43:30.797Z,4.83
2018-07-26T19:45:58.618Z,4.30
2018-07-26T19:48:26.884Z,4.43
2018-07-26T19:50:54.673Z,4.73
2018-07-26T19:53:22.504Z,4.40
2018-07-26T19:55:50.401Z,4.20
2018-07-26T19:58:18.334Z,4.63
2018-07-26T20:00:46.465Z,4.30
2018-07-26T20:03:14.718Z,4.60
2018-07-26T20:05:42.616Z,4.27
2018-07-26T20:08:10.437Z,4.67
2018-07-26T20:10:38.229Z,4.87
2018-07-26T20:13:06.237Z,4.47
2018-07-26T20:15:34.465Z,4.60
2018-07-26T20:18:03.904Z,4.67
2018-07-26T20:20:32.350Z,4.37
2018-07-26T20:23:00.165Z,4.70
2018-07-26T20:25:27.977Z,4.90
2018-07-26T20:27:55.829Z,4.40
2018-07-26T20:30:23.701Z,4.77
2018-07-26T20:32:51.597Z,4.23
2018-07-26T20:35:19.584Z,4.80
2018-07-26T20:37:47.687Z,5.00
2018-07-26T20:40:17.612Z,4.93
2018-07-26T20:42:45.373Z,5.33
2018-07-26T20:45:13.160Z,4.43
2018-07-26T20:47:48.805Z,4.80
2018-07-26T20:50:16.666Z,5.07
2018-07-26T20:52:44.464Z,4.33
2018-07-26T20:55:12.282Z,4.53
2018-07-26T20:57:40.131Z,5.00
2018-07-26T21:00:09.834Z,4.70
2018-07-26T21:02:37.637Z,4.47
2018-07-26T21:05:05.444Z,4.97
2018-07-26T21:07:33.350Z,4.87
2018-07-26T21:10:01.316Z,4.33
2018-07-26T21:12:29.133Z,4.90
2018-07-26T21:14:56.922Z,5.10
2018-07-26T21:17:24.829Z,4.30
2018-07-26T21:19:52.589Z,4.87
2018-07-26T21:22:21.025Z,4.73
2018-07-26T21:27:23.180Z,4.47
2018-07-26T21:29:56.457Z,4.83
2018-07-26T21:32:24.607Z,4.60
2018-07-26T21:34:52.549Z,4.53
2018-07-26T21:37:20.288Z,4.63
2018-07-26T21:39:48.025Z,4.60
2018-07-26T21:42:15.868Z,4.93
2018-07-26T21:44:43.672Z,4.90
2018-07-26T21:47:11.380Z,4.83
2018-07-26T21:49:39.268Z,4.80
2018-07-26T21:52:14.112Z,4.80
2018-07-26T21:54:47.601Z,4.97
2018-07-26T21:57:15.712Z,4.87
2018-07-26T21:59:43.601Z,4.83
2018-07-26T22:02:12.779Z,5.20
2018-07-26T22:04:40.585Z,4.77
2018-07-26T22:07:08.525Z,5.00
2018-07-26T22:09:36.437Z,4.83
2018-07-26T22:12:04.529Z,5.00
2018-07-26T22:14:32.608Z,4.93
2018-07-26T22:17:00.557Z,4.90
2018-07-26T22:19:28.811Z,4.87
2018-07-26T22:21:56.636Z,4.70
2018-07-26T22:24:28.764Z,4.77
2018-07-26T22:26:56.532Z,4.53
2018-07-26T22:29:24.289Z,5.03
2018-07-26T22:31:52.101Z,5.10
2018-07-26T22:34:19.872Z,4.50
2018-07-26T22:36:47.673Z,5.50
2018-07-26T22:39:15.437Z,5.23
2018-07-26T22:41:43.314Z,5.50
2018-07-26T22:44:11.083Z,4.73
2018-07-26T22:46:42.037Z,5.40
2018-07-26T22:49:09.834Z,5.10
2018-07-26T22:51:37.633Z,5.07
2018-07-26T22:54:05.493Z,4.97
2018-07-26T22:56:33.369Z,4.90
2018-07-26T22:59:01.249Z,5.20
2018-07-26T23:01:29.079Z,5.10
2018-07-26T23:03:57.095Z,5.00
2018-07-26T23:06:25.081Z,5.03
2018-07-26T23:08:52.862Z,5.00
2018-07-26T23:11:21.738Z,5.60
2018-07-26T23:13:49.516Z,4.93
2018-07-26T23:16:17.336Z,5.27
2018-07-26T23:18:45.109Z,5.00
2018-07-26T23:21:12.907Z,4.73
2018-07-26T23:23:40.699Z,5.00
2018-07-26T23:26:10.160Z,5.03
2018-07-26T23:28:37.940Z,5.17
2018-07-26T23:31:05.860Z,5.67
2018-07-26T23:33:33.610Z,4.77
2018-07-26T23:36:01.673Z,5.23
2018-07-26T23:38:30.256Z,5.30
2018-07-26T23:40:57.996Z,5.07
2018-07-26T23:43:25.797Z,4.53
2018-07-26T23:45:53.593Z,5.10
2018-07-26T23:48:21.408Z,5.43
2018-07-26T23:50:49.340Z,5.07
2018-07-26T23:53:17.436Z,5.03
2018-07-26T23:55:45.231Z,5.10
2018-07-26T23:58:13.018Z,5.07
